Terminal Aerodrome Forecast
Issued by NWS Sioux Falls, SD

Home | Current Version | Previous Version | Graphics & Text | Print | Product List | Glossary On
Versions: 1 2 3 4 5 6 7 8 9 10 11 12
837
FTUS43 KFSD 220550
TAFFSD
TAF
KFSD 220550Z 2206/2306 07004KT P6SM FEW140
     FM221200 03009KT P6SM BKN050
     FM221400 05011KT P6SM VCTS BKN060CB
     FM222000 04007KT P6SM BKN080
     FM222300 35007KT P6SM BKN130
     FM230000 33007KT P6SM SCT200=

USA.gov is the U.S. government's official web portal to all federal, state and local government web resources and services.